sensor_id;sensor_type;location;lat;lon;timestamp;P1;durP1;ratioP1;P2;durP2;ratioP2
4365;SDS011;2196;47.422;9.656;2023-07-16T00:02:15;4.43;;;4.20;;
4365;SDS011;2196;47.422;9.656;2023-07-16T00:04:42;4.57;;;3.70;;
4365;SDS011;2196;47.422;9.656;2023-07-16T00:07:08;4.17;;;3.30;;
4365;SDS011;2196;47.422;9.656;2023-07-16T00:09:35;2.87;;;2.67;;
4365;SDS011;2196;47.422;9.656;2023-07-16T00:12:04;3.03;;;2.80;;
4365;SDS011;2196;47.422;9.656;2023-07-16T00:14:32;3.07;;;2.87;;
4365;SDS011;2196;47.422;9.656;2023-07-16T00:16:59;2.63;;;2.47;;
4365;SDS011;2196;47.422;9.656;2023-07-16T00:19:26;5.10;;;3.03;;
4365;SDS011;2196;47.422;9.656;2023-07-16T00:21:52;2.70;;;2.50;;
4365;SDS011;2196;47.422;9.656;2023-07-16T00:24:19;2.40;;;2.20;;
4365;SDS011;2196;47.422;9.656;2023-07-16T00:26:46;2.57;;;2.20;;
4365;SDS011;2196;47.422;9.656;2023-07-16T00:29:15;4.23;;;1.77;;
4365;SDS011;2196;47.422;9.656;2023-07-16T00:31:41;1.70;;;1.60;;
4365;SDS011;2196;47.422;9.656;2023-07-16T00:34:08;1.27;;;1.27;;
4365;SDS011;2196;47.422;9.656;2023-07-16T00:36:37;1.30;;;1.30;;
4365;SDS011;2196;47.422;9.656;2023-07-16T00:39:04;1.53;;;1.47;;
4365;SDS011;2196;47.422;9.656;2023-07-16T00:41:31;2.30;;;1.50;;
4365;SDS011;2196;47.422;9.656;2023-07-16T00:43:58;3.60;;;1.80;;
4365;SDS011;2196;47.422;9.656;2023-07-16T00:46:26;1.63;;;1.53;;
4365;SDS011;2196;47.422;9.656;2023-07-16T00:48:54;1.43;;;1.33;;
4365;SDS011;2196;47.422;9.656;2023-07-16T00:51:21;2.20;;;1.50;;
4365;SDS011;2196;47.422;9.656;2023-07-16T00:53:50;2.13;;;1.13;;
4365;SDS011;2196;47.422;9.656;2023-07-16T00:56:17;1.37;;;1.27;;
4365;SDS011;2196;47.422;9.656;2023-07-16T00:58:45;1.80;;;1.23;;
4365;SDS011;2196;47.422;9.656;2023-07-16T01:01:12;1.23;;;0.80;;
4365;SDS011;2196;47.422;9.656;2023-07-16T01:03:40;0.97;;;0.40;;
4365;SDS011;2196;47.422;9.656;2023-07-16T01:06:10;0.40;;;0.40;;
4365;SDS011;2196;47.422;9.656;2023-07-16T01:08:41;1.17;;;0.67;;
4365;SDS011;2196;47.422;9.656;2023-07-16T01:11:17;0.30;;;0.30;;
4365;SDS011;2196;47.422;9.656;2023-07-16T01:13:44;0.40;;;0.40;;
4365;SDS011;2196;47.422;9.656;2023-07-16T01:16:18;0.97;;;0.30;;
4365;SDS011;2196;47.422;9.656;2023-07-16T01:18:47;0.77;;;0.40;;
4365;SDS011;2196;47.422;9.656;2023-07-16T01:21:14;0.30;;;0.30;;
4365;SDS011;2196;47.422;9.656;2023-07-16T01:23:48;0.50;;;0.50;;
4365;SDS011;2196;47.422;9.656;2023-07-16T01:26:32;0.40;;;0.40;;
4365;SDS011;2196;47.422;9.656;2023-07-16T01:29:18;0.47;;;0.40;;
4365;SDS011;2196;47.422;9.656;2023-07-16T01:31:55;0.70;;;0.40;;
4365;SDS011;2196;47.422;9.656;2023-07-16T01:34:23;0.40;;;0.40;;
4365;SDS011;2196;47.422;9.656;2023-07-16T01:36:53;1.03;;;0.60;;
4365;SDS011;2196;47.422;9.656;2023-07-16T01:39:21;0.60;;;0.60;;
4365;SDS011;2196;47.422;9.656;2023-07-16T01:41:49;0.90;;;0.67;;
4365;SDS011;2196;47.422;9.656;2023-07-16T01:44:17;0.50;;;0.50;;
4365;SDS011;2196;47.422;9.656;2023-07-16T01:46:45;0.60;;;0.60;;
4365;SDS011;2196;47.422;9.656;2023-07-16T01:49:25;0.53;;;0.50;;
4365;SDS011;2196;47.422;9.656;2023-07-16T01:51:53;1.80;;;0.40;;
4365;SDS011;2196;47.422;9.656;2023-07-16T01:54:20;0.67;;;0.67;;
4365;SDS011;2196;47.422;9.656;2023-07-16T01:56:47;0.67;;;0.67;;
4365;SDS011;2196;47.422;9.656;2023-07-16T01:59:14;0.50;;;0.50;;
4365;SDS011;2196;47.422;9.656;2023-07-16T02:01:42;0.50;;;0.50;;
4365;SDS011;2196;47.422;9.656;2023-07-16T02:04:09;0.80;;;0.80;;
4365;SDS011;2196;47.422;9.656;2023-07-16T02:06:36;0.50;;;0.50;;
4365;SDS011;2196;47.422;9.656;2023-07-16T02:09:03;0.60;;;0.60;;
4365;SDS011;2196;47.422;9.656;2023-07-16T02:11:30;0.70;;;0.70;;
4365;SDS011;2196;47.422;9.656;2023-07-16T02:13:57;0.60;;;0.60;;
4365;SDS011;2196;47.422;9.656;2023-07-16T02:16:25;1.83;;;0.53;;
4365;SDS011;2196;47.422;9.656;2023-07-16T02:18:53;0.60;;;0.60;;
4365;SDS011;2196;47.422;9.656;2023-07-16T02:21:20;1.13;;;1.03;;
4365;SDS011;2196;47.422;9.656;2023-07-16T02:23:48;0.90;;;0.60;;
4365;SDS011;2196;47.422;9.656;2023-07-16T02:26:15;0.70;;;0.70;;
4365;SDS011;2196;47.422;9.656;2023-07-16T02:28:42;0.57;;;0.57;;
4365;SDS011;2196;47.422;9.656;2023-07-16T02:31:09;2.17;;;0.80;;
4365;SDS011;2196;47.422;9.656;2023-07-16T02:33:36;0.57;;;0.57;;
4365;SDS011;2196;47.422;9.656;2023-07-16T02:36:05;0.50;;;0.50;;
4365;SDS011;2196;47.422;9.656;2023-07-16T02:38:32;0.70;;;0.70;;
4365;SDS011;2196;47.422;9.656;2023-07-16T02:40:59;0.70;;;0.70;;
4365;SDS011;2196;47.422;9.656;2023-07-16T02:43:26;2.30;;;0.90;;
4365;SDS011;2196;47.422;9.656;2023-07-16T02:45:53;0.73;;;0.73;;
4365;SDS011;2196;47.422;9.656;2023-07-16T02:48:21;0.90;;;0.90;;
4365;SDS011;2196;47.422;9.656;2023-07-16T02:53:35;1.00;;;0.80;;
4365;SDS011;2196;47.422;9.656;2023-07-16T02:56:02;0.70;;;0.70;;
4365;SDS011;2196;47.422;9.656;2023-07-16T02:58:29;1.07;;;0.60;;
4365;SDS011;2196;47.422;9.656;2023-07-16T03:00:56;0.73;;;0.73;;
4365;SDS011;2196;47.422;9.656;2023-07-16T03:03:24;1.63;;;0.90;;
4365;SDS011;2196;47.422;9.656;2023-07-16T03:05:51;0.73;;;0.73;;
4365;SDS011;2196;47.422;9.656;2023-07-16T03:08:19;1.90;;;0.80;;
4365;SDS011;2196;47.422;9.656;2023-07-16T03:10:47;1.50;;;0.60;;
4365;SDS011;2196;47.422;9.656;2023-07-16T03:13:14;1.13;;;0.80;;
4365;SDS011;2196;47.422;9.656;2023-07-16T03:15:41;0.90;;;0.90;;
4365;SDS011;2196;47.422;9.656;2023-07-16T03:18:08;0.80;;;0.80;;
4365;SDS011;2196;47.422;9.656;2023-07-16T03:20:35;2.83;;;1.10;;
4365;SDS011;2196;47.422;9.656;2023-07-16T03:23:03;1.50;;;0.93;;
4365;SDS011;2196;47.422;9.656;2023-07-16T03:25:33;1.60;;;0.93;;
4365;SDS011;2196;47.422;9.656;2023-07-16T03:28:00;0.80;;;0.80;;
4365;SDS011;2196;47.422;9.656;2023-07-16T03:30:27;1.50;;;0.73;;
4365;SDS011;2196;47.422;9.656;2023-07-16T03:32:56;1.07;;;1.03;;
4365;SDS011;2196;47.422;9.656;2023-07-16T03:35:23;1.10;;;1.10;;
4365;SDS011;2196;47.422;9.656;2023-07-16T03:37:51;0.97;;;0.97;;
4365;SDS011;2196;47.422;9.656;2023-07-16T03:40:21;1.00;;;1.00;;
4365;SDS011;2196;47.422;9.656;2023-07-16T03:42:51;2.73;;;1.10;;
4365;SDS011;2196;47.422;9.656;2023-07-16T03:45:19;1.17;;;1.17;;
4365;SDS011;2196;47.422;9.656;2023-07-16T03:47:46;0.90;;;0.90;;
4365;SDS011;2196;47.422;9.656;2023-07-16T03:50:13;0.70;;;0.70;;
4365;SDS011;2196;47.422;9.656;2023-07-16T03:52:40;1.10;;;1.10;;
4365;SDS011;2196;47.422;9.656;2023-07-16T03:55:10;1.20;;;1.10;;
4365;SDS011;2196;47.422;9.656;2023-07-16T03:57:37;1.00;;;1.00;;
4365;SDS011;2196;47.422;9.656;2023-07-16T04:00:07;0.87;;;0.87;;
4365;SDS011;2196;47.422;9.656;2023-07-16T04:02:35;0.93;;;0.93;;
4365;SDS011;2196;47.422;9.656;2023-07-16T04:05:07;0.83;;;0.83;;
4365;SDS011;2196;47.422;9.656;2023-07-16T04:07:37;0.53;;;0.53;;
4365;SDS011;2196;47.422;9.656;2023-07-16T04:10:07;0.87;;;0.80;;
4365;SDS011;2196;47.422;9.656;2023-07-16T04:12:35;0.80;;;0.80;;
4365;SDS011;2196;47.422;9.656;2023-07-16T04:15:06;0.90;;;0.90;;
4365;SDS011;2196;47.422;9.656;2023-07-16T04:17:39;1.00;;;0.83;;
4365;SDS011;2196;47.422;9.656;2023-07-16T04:20:06;1.30;;;1.30;;
4365;SDS011;2196;47.422;9.656;2023-07-16T04:22:34;0.77;;;0.77;;
4365;SDS011;2196;47.422;9.656;2023-07-16T04:25:01;1.80;;;0.90;;
4365;SDS011;2196;47.422;9.656;2023-07-16T04:27:28;2.33;;;1.07;;
4365;SDS011;2196;47.422;9.656;2023-07-16T04:29:55;0.80;;;0.80;;
4365;SDS011;2196;47.422;9.656;2023-07-16T04:32:24;0.80;;;0.80;;
4365;SDS011;2196;47.422;9.656;2023-07-16T04:34:51;0.97;;;0.97;;
4365;SDS011;2196;47.422;9.656;2023-07-16T04:37:18;0.77;;;0.77;;
4365;SDS011;2196;47.422;9.656;2023-07-16T04:39:45;0.60;;;0.60;;
4365;SDS011;2196;47.422;9.656;2023-07-16T04:42:11;0.93;;;0.90;;
4365;SDS011;2196;47.422;9.656;2023-07-16T04:44:38;0.80;;;0.80;;
4365;SDS011;2196;47.422;9.656;2023-07-16T04:47:05;0.90;;;0.90;;
4365;SDS011;2196;47.422;9.656;2023-07-16T04:49:34;0.70;;;0.70;;
4365;SDS011;2196;47.422;9.656;2023-07-16T04:52:02;0.60;;;0.60;;
4365;SDS011;2196;47.422;9.656;2023-07-16T04:54:34;1.03;;;0.90;;
4365;SDS011;2196;47.422;9.656;2023-07-16T04:57:01;0.90;;;0.80;;
4365;SDS011;2196;47.422;9.656;2023-07-16T04:59:28;0.90;;;0.90;;
4365;SDS011;2196;47.422;9.656;2023-07-16T05:01:55;1.10;;;1.10;;
4365;SDS011;2196;47.422;9.656;2023-07-16T05:04:22;0.93;;;0.83;;
4365;SDS011;2196;47.422;9.656;2023-07-16T05:06:51;0.80;;;0.80;;
4365;SDS011;2196;47.422;9.656;2023-07-16T05:09:18;1.00;;;1.00;;
4365;SDS011;2196;47.422;9.656;2023-07-16T05:11:45;1.10;;;0.97;;
4365;SDS011;2196;47.422;9.656;2023-07-16T05:14:12;0.87;;;0.87;;
4365;SDS011;2196;47.422;9.656;2023-07-16T05:16:39;0.70;;;0.70;;
4365;SDS011;2196;47.422;9.656;2023-07-16T05:19:06;1.03;;;1.03;;
4365;SDS011;2196;47.422;9.656;2023-07-16T05:21:33;0.80;;;0.80;;
4365;SDS011;2196;47.422;9.656;2023-07-16T05:24:02;0.90;;;0.90;;
4365;SDS011;2196;47.422;9.656;2023-07-16T05:26:29;0.60;;;0.60;;
4365;SDS011;2196;47.422;9.656;2023-07-16T05:28:58;0.83;;;0.73;;
4365;SDS011;2196;47.422;9.656;2023-07-16T05:31:25;0.90;;;0.77;;
4365;SDS011;2196;47.422;9.656;2023-07-16T05:33:52;0.83;;;0.83;;
4365;SDS011;2196;47.422;9.656;2023-07-16T05:36:19;1.40;;;0.70;;
4365;SDS011;2196;47.422;9.656;2023-07-16T05:38:46;0.90;;;0.90;;
4365;SDS011;2196;47.422;9.656;2023-07-16T05:41:14;0.73;;;0.73;;
4365;SDS011;2196;47.422;9.656;2023-07-16T05:43:41;1.03;;;1.03;;
4365;SDS011;2196;47.422;9.656;2023-07-16T05:46:08;0.53;;;0.53;;
4365;SDS011;2196;47.422;9.656;2023-07-16T05:48:35;0.67;;;0.67;;
4365;SDS011;2196;47.422;9.656;2023-07-16T05:51:02;0.70;;;0.70;;
4365;SDS011;2196;47.422;9.656;2023-07-16T05:53:29;0.83;;;0.83;;
4365;SDS011;2196;47.422;9.656;2023-07-16T05:55:56;1.13;;;0.90;;
4365;SDS011;2196;47.422;9.656;2023-07-16T05:58:25;0.77;;;0.77;;
4365;SDS011;2196;47.422;9.656;2023-07-16T06:00:52;1.03;;;0.60;;
4365;SDS011;2196;47.422;9.656;2023-07-16T06:03:20;0.80;;;0.80;;
4365;SDS011;2196;47.422;9.656;2023-07-16T06:05:50;0.80;;;0.80;;
4365;SDS011;2196;47.422;9.656;2023-07-16T06:08:19;1.23;;;0.60;;
4365;SDS011;2196;47.422;9.656;2023-07-16T06:10:47;1.10;;;1.00;;
4365;SDS011;2196;47.422;9.656;2023-07-16T06:13:14;0.77;;;0.77;;
4365;SDS011;2196;47.422;9.656;2023-07-16T06:15:43;0.80;;;0.80;;
4365;SDS011;2196;47.422;9.656;2023-07-16T06:18:11;1.10;;;0.90;;
4365;SDS011;2196;47.422;9.656;2023-07-16T06:20:38;1.77;;;0.80;;
4365;SDS011;2196;47.422;9.656;2023-07-16T06:23:09;0.80;;;0.80;;
4365;SDS011;2196;47.422;9.656;2023-07-16T06:25:36;1.10;;;1.10;;
4365;SDS011;2196;47.422;9.656;2023-07-16T06:28:05;0.93;;;0.93;;
4365;SDS011;2196;47.422;9.656;2023-07-16T06:30:32;1.17;;;0.77;;
4365;SDS011;2196;47.422;9.656;2023-07-16T06:33:01;1.53;;;0.90;;
4365;SDS011;2196;47.422;9.656;2023-07-16T06:35:28;1.80;;;1.13;;
4365;SDS011;2196;47.422;9.656;2023-07-16T06:37:55;0.80;;;0.80;;
4365;SDS011;2196;47.422;9.656;2023-07-16T06:40:23;0.80;;;0.80;;
4365;SDS011;2196;47.422;9.656;2023-07-16T06:42:50;0.70;;;0.67;;
4365;SDS011;2196;47.422;9.656;2023-07-16T06:45:17;0.70;;;0.70;;
4365;SDS011;2196;47.422;9.656;2023-07-16T06:47:45;0.90;;;0.90;;
4365;SDS011;2196;47.422;9.656;2023-07-16T06:50:14;0.60;;;0.60;;
4365;SDS011;2196;47.422;9.656;2023-07-16T06:52:41;0.60;;;0.60;;
4365;SDS011;2196;47.422;9.656;2023-07-16T06:55:09;0.57;;;0.57;;
4365;SDS011;2196;47.422;9.656;2023-07-16T06:57:39;0.50;;;0.50;;
4365;SDS011;2196;47.422;9.656;2023-07-16T07:00:07;0.70;;;0.70;;
4365;SDS011;2196;47.422;9.656;2023-07-16T07:02:36;0.93;;;0.53;;
4365;SDS011;2196;47.422;9.656;2023-07-16T07:05:04;0.93;;;0.50;;
4365;SDS011;2196;47.422;9.656;2023-07-16T07:07:33;1.47;;;0.77;;
4365;SDS011;2196;47.422;9.656;2023-07-16T07:10:00;0.47;;;0.47;;
4365;SDS011;2196;47.422;9.656;2023-07-16T07:12:27;0.57;;;0.57;;
4365;SDS011;2196;47.422;9.656;2023-07-16T07:14:54;0.87;;;0.60;;
4365;SDS011;2196;47.422;9.656;2023-07-16T07:17:22;2.17;;;0.70;;
4365;SDS011;2196;47.422;9.656;2023-07-16T07:19:49;0.60;;;0.60;;
4365;SDS011;2196;47.422;9.656;2023-07-16T07:22:16;1.93;;;1.00;;
4365;SDS011;2196;47.422;9.656;2023-07-16T07:24:44;1.10;;;0.70;;
4365;SDS011;2196;47.422;9.656;2023-07-16T07:27:12;0.90;;;0.67;;
4365;SDS011;2196;47.422;9.656;2023-07-16T07:29:39;0.70;;;0.70;;
4365;SDS011;2196;47.422;9.656;2023-07-16T07:32:06;0.83;;;0.83;;
4365;SDS011;2196;47.422;9.656;2023-07-16T07:34:34;0.63;;;0.63;;
4365;SDS011;2196;47.422;9.656;2023-07-16T07:37:01;1.17;;;1.07;;
4365;SDS011;2196;47.422;9.656;2023-07-16T07:39:28;0.80;;;0.80;;
4365;SDS011;2196;47.422;9.656;2023-07-16T07:41:56;0.67;;;0.67;;
4365;SDS011;2196;47.422;9.656;2023-07-16T07:44:23;0.60;;;0.60;;
4365;SDS011;2196;47.422;9.656;2023-07-16T07:46:51;0.90;;;0.90;;
4365;SDS011;2196;47.422;9.656;2023-07-16T07:49:19;1.07;;;0.50;;
4365;SDS011;2196;47.422;9.656;2023-07-16T07:51:48;1.53;;;0.57;;
4365;SDS011;2196;47.422;9.656;2023-07-16T07:54:15;0.93;;;0.93;;
4365;SDS011;2196;47.422;9.656;2023-07-16T07:56:45;1.47;;;0.90;;
4365;SDS011;2196;47.422;9.656;2023-07-16T07:59:13;0.50;;;0.50;;
4365;SDS011;2196;47.422;9.656;2023-07-16T08:01:40;1.13;;;0.73;;
4365;SDS011;2196;47.422;9.656;2023-07-16T08:04:08;0.63;;;0.63;;
4365;SDS011;2196;47.422;9.656;2023-07-16T08:06:35;2.73;;;1.43;;
4365;SDS011;2196;47.422;9.656;2023-07-16T08:09:02;0.77;;;0.77;;
4365;SDS011;2196;47.422;9.656;2023-07-16T08:11:29;0.60;;;0.60;;
4365;SDS011;2196;47.422;9.656;2023-07-16T08:13:57;0.87;;;0.77;;
4365;SDS011;2196;47.422;9.656;2023-07-16T08:16:25;0.70;;;0.70;;
4365;SDS011;2196;47.422;9.656;2023-07-16T08:18:52;0.63;;;0.63;;
4365;SDS011;2196;47.422;9.656;2023-07-16T08:21:20;0.63;;;0.63;;
4365;SDS011;2196;47.422;9.656;2023-07-16T08:23:48;0.67;;;0.67;;
4365;SDS011;2196;47.422;9.656;2023-07-16T08:26:15;0.93;;;0.90;;
4365;SDS011;2196;47.422;9.656;2023-07-16T08:28:43;1.52;;;0.60;;
4365;SDS011;2196;47.422;9.656;2023-07-16T08:31:10;0.65;;;0.65;;
4365;SDS011;2196;47.422;9.656;2023-07-16T08:33:39;0.68;;;0.68;;
4365;SDS011;2196;47.422;9.656;2023-07-16T08:36:06;0.70;;;0.70;;
4365;SDS011;2196;47.422;9.656;2023-07-16T08:38:33;1.45;;;0.50;;
4365;SDS011;2196;47.422;9.656;2023-07-16T08:41:00;0.88;;;0.88;;
4365;SDS011;2196;47.422;9.656;2023-07-16T08:43:28;1.08;;;0.68;;
4365;SDS011;2196;47.422;9.656;2023-07-16T08:45:55;0.70;;;0.70;;
4365;SDS011;2196;47.422;9.656;2023-07-16T08:48:23;1.30;;;0.60;;
4365;SDS011;2196;47.422;9.656;2023-07-16T08:50:52;1.60;;;1.00;;
4365;SDS011;2196;47.422;9.656;2023-07-16T08:53:21;0.60;;;0.57;;
4365;SDS011;2196;47.422;9.656;2023-07-16T08:55:49;0.80;;;0.80;;
4365;SDS011;2196;47.422;9.656;2023-07-16T08:58:16;0.70;;;0.70;;
4365;SDS011;2196;47.422;9.656;2023-07-16T09:00:43;0.87;;;0.57;;
4365;SDS011;2196;47.422;9.656;2023-07-16T09:03:11;0.90;;;0.90;;
4365;SDS011;2196;47.422;9.656;2023-07-16T09:05:38;0.60;;;0.60;;
4365;SDS011;2196;47.422;9.656;2023-07-16T09:08:07;0.70;;;0.70;;
4365;SDS011;2196;47.422;9.656;2023-07-16T09:10:34;0.60;;;0.60;;
4365;SDS011;2196;47.422;9.656;2023-07-16T09:13:02;1.30;;;0.57;;
4365;SDS011;2196;47.422;9.656;2023-07-16T09:15:29;0.60;;;0.60;;
4365;SDS011;2196;47.422;9.656;2023-07-16T09:17:56;0.80;;;0.80;;
4365;SDS011;2196;47.422;9.656;2023-07-16T09:20:23;0.82;;;0.80;;
4365;SDS011;2196;47.422;9.656;2023-07-16T09:22:53;1.17;;;1.08;;
4365;SDS011;2196;47.422;9.656;2023-07-16T09:25:26;0.70;;;0.70;;
4365;SDS011;2196;47.422;9.656;2023-07-16T09:27:54;0.73;;;0.73;;
4365;SDS011;2196;47.422;9.656;2023-07-16T09:30:21;0.60;;;0.60;;
4365;SDS011;2196;47.422;9.656;2023-07-16T09:32:48;0.73;;;0.73;;
4365;SDS011;2196;47.422;9.656;2023-07-16T09:35:16;1.48;;;1.17;;
4365;SDS011;2196;47.422;9.656;2023-07-16T09:37:44;1.38;;;1.27;;
4365;SDS011;2196;47.422;9.656;2023-07-16T09:40:11;0.93;;;0.93;;
4365;SDS011;2196;47.422;9.656;2023-07-16T09:42:43;0.73;;;0.73;;
4365;SDS011;2196;47.422;9.656;2023-07-16T09:45:12;0.70;;;0.70;;
4365;SDS011;2196;47.422;9.656;2023-07-16T09:47:45;1.87;;;0.90;;
4365;SDS011;2196;47.422;9.656;2023-07-16T09:50:13;0.70;;;0.70;;
4365;SDS011;2196;47.422;9.656;2023-07-16T09:52:41;0.60;;;0.60;;
4365;SDS011;2196;47.422;9.656;2023-07-16T09:55:09;0.67;;;0.67;;
4365;SDS011;2196;47.422;9.656;2023-07-16T09:57:40;0.63;;;0.63;;
4365;SDS011;2196;47.422;9.656;2023-07-16T10:00:10;0.82;;;0.82;;
4365;SDS011;2196;47.422;9.656;2023-07-16T10:02:41;0.60;;;0.60;;
4365;SDS011;2196;47.422;9.656;2023-07-16T10:05:12;0.83;;;0.83;;
4365;SDS011;2196;47.422;9.656;2023-07-16T10:07:42;1.03;;;0.80;;
4365;SDS011;2196;47.422;9.656;2023-07-16T10:10:16;0.63;;;0.63;;
4365;SDS011;2196;47.422;9.656;2023-07-16T10:12:55;0.60;;;0.60;;
4365;SDS011;2196;47.422;9.656;2023-07-16T10:15:25;0.73;;;0.73;;
4365;SDS011;2196;47.422;9.656;2023-07-16T10:17:53;1.57;;;0.70;;
4365;SDS011;2196;47.422;9.656;2023-07-16T10:20:28;0.70;;;0.70;;
4365;SDS011;2196;47.422;9.656;2023-07-16T10:22:57;1.10;;;0.67;;
4365;SDS011;2196;47.422;9.656;2023-07-16T10:25:25;0.60;;;0.60;;
4365;SDS011;2196;47.422;9.656;2023-07-16T10:27:56;0.83;;;0.83;;
4365;SDS011;2196;47.422;9.656;2023-07-16T10:30:23;0.60;;;0.60;;
4365;SDS011;2196;47.422;9.656;2023-07-16T10:32:50;0.70;;;0.60;;
4365;SDS011;2196;47.422;9.656;2023-07-16T10:35:18;0.80;;;0.80;;
4365;SDS011;2196;47.422;9.656;2023-07-16T10:37:46;0.77;;;0.77;;
4365;SDS011;2196;47.422;9.656;2023-07-16T10:40:13;3.13;;;0.93;;
4365;SDS011;2196;47.422;9.656;2023-07-16T10:42:41;0.80;;;0.80;;
4365;SDS011;2196;47.422;9.656;2023-07-16T10:45:13;1.53;;;0.90;;
4365;SDS011;2196;47.422;9.656;2023-07-16T10:47:50;0.63;;;0.63;;
4365;SDS011;2196;47.422;9.656;2023-07-16T10:50:18;0.80;;;0.80;;
4365;SDS011;2196;47.422;9.656;2023-07-16T10:52:49;0.70;;;0.70;;
4365;SDS011;2196;47.422;9.656;2023-07-16T10:55:17;0.90;;;0.90;;
4365;SDS011;2196;47.422;9.656;2023-07-16T10:57:46;2.70;;;0.80;;
4365;SDS011;2196;47.422;9.656;2023-07-16T11:00:16;1.10;;;0.67;;
4365;SDS011;2196;47.422;9.656;2023-07-16T11:02:44;0.93;;;0.93;;
4365;SDS011;2196;47.422;9.656;2023-07-16T11:05:12;0.80;;;0.80;;
4365;SDS011;2196;47.422;9.656;2023-07-16T11:07:42;0.90;;;0.90;;
4365;SDS011;2196;47.422;9.656;2023-07-16T11:10:09;1.20;;;0.80;;
4365;SDS011;2196;47.422;9.656;2023-07-16T11:12:37;0.83;;;0.83;;
4365;SDS011;2196;47.422;9.656;2023-07-16T11:15:04;1.20;;;1.20;;
4365;SDS011;2196;47.422;9.656;2023-07-16T11:17:33;1.70;;;1.30;;
4365;SDS011;2196;47.422;9.656;2023-07-16T11:20:08;1.10;;;1.10;;
4365;SDS011;2196;47.422;9.656;2023-07-16T11:22:37;0.90;;;0.90;;
4365;SDS011;2196;47.422;9.656;2023-07-16T11:25:10;1.57;;;1.47;;
4365;SDS011;2196;47.422;9.656;2023-07-16T11:27:39;2.30;;;1.20;;
4365;SDS011;2196;47.422;9.656;2023-07-16T11:30:09;1.60;;;1.00;;
4365;SDS011;2196;47.422;9.656;2023-07-16T11:32:42;0.90;;;0.90;;
4365;SDS011;2196;47.422;9.656;2023-07-16T11:35:15;0.80;;;0.80;;
4365;SDS011;2196;47.422;9.656;2023-07-16T11:37:43;2.17;;;1.00;;
4365;SDS011;2196;47.422;9.656;2023-07-16T11:40:11;0.93;;;0.93;;
4365;SDS011;2196;47.422;9.656;2023-07-16T11:42:45;1.43;;;1.30;;
4365;SDS011;2196;47.422;9.656;2023-07-16T11:45:17;2.07;;;0.90;;
4365;SDS011;2196;47.422;9.656;2023-07-16T11:47:47;1.17;;;1.17;;
4365;SDS011;2196;47.422;9.656;2023-07-16T11:50:14;0.97;;;0.97;;
4365;SDS011;2196;47.422;9.656;2023-07-16T11:52:41;2.20;;;1.00;;
4365;SDS011;2196;47.422;9.656;2023-07-16T11:55:09;1.30;;;1.20;;
4365;SDS011;2196;47.422;9.656;2023-07-16T11:57:39;2.13;;;1.10;;
4365;SDS011;2196;47.422;9.656;2023-07-16T12:00:06;1.20;;;1.10;;
4365;SDS011;2196;47.422;9.656;2023-07-16T12:02:34;0.90;;;0.90;;
4365;SDS011;2196;47.422;9.656;2023-07-16T12:05:03;1.40;;;1.10;;
4365;SDS011;2196;47.422;9.656;2023-07-16T12:07:30;2.20;;;1.03;;
4365;SDS011;2196;47.422;9.656;2023-07-16T12:09:58;1.27;;;0.80;;
4365;SDS011;2196;47.422;9.656;2023-07-16T12:12:27;2.70;;;1.13;;
4365;SDS011;2196;47.422;9.656;2023-07-16T12:14:54;1.27;;;1.10;;
4365;SDS011;2196;47.422;9.656;2023-07-16T12:17:21;3.60;;;1.00;;
4365;SDS011;2196;47.422;9.656;2023-07-16T12:19:48;3.07;;;1.13;;
4365;SDS011;2196;47.422;9.656;2023-07-16T12:22:17;3.20;;;1.43;;
4365;SDS011;2196;47.422;9.656;2023-07-16T12:24:44;1.13;;;1.00;;
4365;SDS011;2196;47.422;9.656;2023-07-16T12:27:13;0.83;;;0.83;;
4365;SDS011;2196;47.422;9.656;2023-07-16T12:29:40;1.10;;;1.10;;
4365;SDS011;2196;47.422;9.656;2023-07-16T12:32:07;1.20;;;1.20;;
4365;SDS011;2196;47.422;9.656;2023-07-16T12:34:34;2.67;;;1.17;;
4365;SDS011;2196;47.422;9.656;2023-07-16T12:37:02;3.10;;;2.33;;
4365;SDS011;2196;47.422;9.656;2023-07-16T12:39:30;2.07;;;1.10;;
4365;SDS011;2196;47.422;9.656;2023-07-16T12:41:57;1.70;;;1.40;;
4365;SDS011;2196;47.422;9.656;2023-07-16T12:44:24;0.70;;;0.70;;
4365;SDS011;2196;47.422;9.656;2023-07-16T12:46:51;0.97;;;0.97;;
4365;SDS011;2196;47.422;9.656;2023-07-16T12:49:19;1.33;;;1.20;;
4365;SDS011;2196;47.422;9.656;2023-07-16T12:51:46;1.67;;;0.90;;
4365;SDS011;2196;47.422;9.656;2023-07-16T12:54:13;1.00;;;1.00;;
4365;SDS011;2196;47.422;9.656;2023-07-16T12:56:41;1.20;;;1.10;;
4365;SDS011;2196;47.422;9.656;2023-07-16T12:59:08;1.20;;;1.20;;
4365;SDS011;2196;47.422;9.656;2023-07-16T13:01:35;2.20;;;1.23;;
4365;SDS011;2196;47.422;9.656;2023-07-16T13:04:02;1.30;;;1.10;;
4365;SDS011;2196;47.422;9.656;2023-07-16T13:06:29;4.07;;;1.27;;
4365;SDS011;2196;47.422;9.656;2023-07-16T13:08:57;0.90;;;0.90;;
4365;SDS011;2196;47.422;9.656;2023-07-16T13:11:24;1.17;;;1.07;;
4365;SDS011;2196;47.422;9.656;2023-07-16T13:13:53;1.40;;;1.30;;
4365;SDS011;2196;47.422;9.656;2023-07-16T13:16:20;2.93;;;0.90;;
4365;SDS011;2196;47.422;9.656;2023-07-16T13:18:47;1.67;;;1.13;;
4365;SDS011;2196;47.422;9.656;2023-07-16T13:21:14;1.33;;;0.83;;
4365;SDS011;2196;47.422;9.656;2023-07-16T13:23:41;0.77;;;0.77;;
4365;SDS011;2196;47.422;9.656;2023-07-16T13:26:08;0.70;;;0.70;;
4365;SDS011;2196;47.422;9.656;2023-07-16T13:28:35;1.03;;;1.03;;
4365;SDS011;2196;47.422;9.656;2023-07-16T13:31:03;0.80;;;0.80;;
4365;SDS011;2196;47.422;9.656;2023-07-16T13:33:32;0.90;;;0.90;;
4365;SDS011;2196;47.422;9.656;2023-07-16T13:36:00;0.93;;;0.87;;
4365;SDS011;2196;47.422;9.656;2023-07-16T13:38:29;0.97;;;0.97;;
4365;SDS011;2196;47.422;9.656;2023-07-16T13:40:56;1.53;;;1.40;;
4365;SDS011;2196;47.422;9.656;2023-07-16T13:43:23;1.17;;;1.00;;
4365;SDS011;2196;47.422;9.656;2023-07-16T13:45:51;1.33;;;1.33;;
4365;SDS011;2196;47.422;9.656;2023-07-16T13:48:19;1.20;;;1.20;;
4365;SDS011;2196;47.422;9.656;2023-07-16T13:50:46;1.30;;;1.30;;
4365;SDS011;2196;47.422;9.656;2023-07-16T13:53:13;1.13;;;1.10;;
4365;SDS011;2196;47.422;9.656;2023-07-16T13:55:40;0.97;;;0.97;;
4365;SDS011;2196;47.422;9.656;2023-07-16T13:58:08;1.10;;;1.10;;
4365;SDS011;2196;47.422;9.656;2023-07-16T14:00:36;1.90;;;1.00;;
4365;SDS011;2196;47.422;9.656;2023-07-16T14:03:02;1.50;;;1.37;;
4365;SDS011;2196;47.422;9.656;2023-07-16T14:05:31;1.40;;;1.30;;
4365;SDS011;2196;47.422;9.656;2023-07-16T14:08:00;1.23;;;1.23;;
4365;SDS011;2196;47.422;9.656;2023-07-16T14:10:29;1.23;;;1.23;;
4365;SDS011;2196;47.422;9.656;2023-07-16T14:12:56;0.93;;;0.93;;
4365;SDS011;2196;47.422;9.656;2023-07-16T14:15:23;1.00;;;1.00;;
4365;SDS011;2196;47.422;9.656;2023-07-16T14:17:50;1.00;;;1.00;;
4365;SDS011;2196;47.422;9.656;2023-07-16T14:20:17;1.30;;;1.30;;
4365;SDS011;2196;47.422;9.656;2023-07-16T14:22:47;1.70;;;0.93;;
4365;SDS011;2196;47.422;9.656;2023-07-16T14:25:14;1.40;;;1.40;;
4365;SDS011;2196;47.422;9.656;2023-07-16T14:27:43;1.33;;;1.30;;
4365;SDS011;2196;47.422;9.656;2023-07-16T14:30:10;0.90;;;0.90;;
4365;SDS011;2196;47.422;9.656;2023-07-16T14:32:37;3.27;;;1.57;;
4365;SDS011;2196;47.422;9.656;2023-07-16T14:35:08;1.90;;;0.90;;
4365;SDS011;2196;47.422;9.656;2023-07-16T14:37:39;1.73;;;1.63;;
4365;SDS011;2196;47.422;9.656;2023-07-16T14:40:09;1.00;;;1.00;;
4365;SDS011;2196;47.422;9.656;2023-07-16T14:42:40;1.67;;;1.57;;
4365;SDS011;2196;47.422;9.656;2023-07-16T14:45:08;1.50;;;1.50;;
4365;SDS011;2196;47.422;9.656;2023-07-16T14:47:36;1.40;;;1.40;;
4365;SDS011;2196;47.422;9.656;2023-07-16T14:50:03;1.27;;;1.27;;
4365;SDS011;2196;47.422;9.656;2023-07-16T14:52:30;1.37;;;0.93;;
4365;SDS011;2196;47.422;9.656;2023-07-16T14:54:57;1.63;;;1.50;;
4365;SDS011;2196;47.422;9.656;2023-07-16T14:57:26;1.70;;;1.60;;
4365;SDS011;2196;47.422;9.656;2023-07-16T14:59:53;1.67;;;1.50;;
4365;SDS011;2196;47.422;9.656;2023-07-16T15:02:21;1.20;;;1.20;;
4365;SDS011;2196;47.422;9.656;2023-07-16T15:04:48;1.60;;;1.50;;
4365;SDS011;2196;47.422;9.656;2023-07-16T15:07:16;1.50;;;1.50;;
4365;SDS011;2196;47.422;9.656;2023-07-16T15:09:45;1.23;;;1.23;;
4365;SDS011;2196;47.422;9.656;2023-07-16T15:12:13;1.77;;;1.67;;
4365;SDS011;2196;47.422;9.656;2023-07-16T15:14:41;1.67;;;1.43;;
4365;SDS011;2196;47.422;9.656;2023-07-16T15:17:08;1.87;;;1.73;;
4365;SDS011;2196;47.422;9.656;2023-07-16T15:19:35;2.23;;;1.53;;
4365;SDS011;2196;47.422;9.656;2023-07-16T15:22:02;2.93;;;2.00;;
4365;SDS011;2196;47.422;9.656;2023-07-16T15:24:30;1.87;;;1.10;;